createdAt,value
2016-06-27T00:00:53.713Z,1012.03
2016-06-27T00:01:53.702Z,1012.06
2016-06-27T00:02:53.682Z,1012.04
2016-06-27T00:03:53.669Z,1012.03
2016-06-27T00:04:53.657Z,1012
2016-06-27T00:05:53.639Z,1012
2016-06-27T00:06:53.625Z,1012.06
2016-06-27T00:07:53.606Z,1012.04
2016-06-27T00:08:53.597Z,1012
2016-06-27T00:09:53.582Z,1012.02
2016-06-27T00:10:53.560Z,1012.01
2016-06-27T00:11:53.551Z,1012
2016-06-27T00:12:53.536Z,1012.02
2016-06-27T00:13:53.522Z,1012.03
2016-06-27T00:14:53.504Z,1012.07
2016-06-27T00:15:53.502Z,1012.05
2016-06-27T00:16:53.484Z,1012.06
2016-06-27T00:17:53.458Z,1012.03
2016-06-27T00:18:53.441Z,1012.04
2016-06-27T00:19:53.427Z,1012.05
2016-06-27T00:20:53.411Z,1012.1
2016-06-27T00:21:53.398Z,1012.05
2016-06-27T00:22:53.387Z,1012.09
2016-06-27T00:23:53.387Z,1012.04
2016-06-27T00:24:53.353Z,1012.01
2016-06-27T00:25:53.339Z,1012.03
2016-06-27T00:26:53.341Z,1012.02
2016-06-27T00:27:53.314Z,1011.99
2016-06-27T00:28:53.291Z,1011.95
2016-06-27T00:29:53.277Z,1012
2016-06-27T00:30:53.263Z,1011.99
2016-06-27T00:31:53.247Z,1012
2016-06-27T00:32:53.234Z,1012.05
2016-06-27T00:33:53.215Z,1012.02
2016-06-27T00:34:53.204Z,1012.02
2016-06-27T00:35:53.188Z,1011.99
2016-06-27T00:36:53.175Z,1012.01
2016-06-27T00:37:53.158Z,1011.97
2016-06-27T00:38:53.146Z,1011.97
2016-06-27T00:39:53.126Z,1011.91
2016-06-27T00:40:53.113Z,1011.89
2016-06-27T00:41:53.100Z,1011.9
2016-06-27T00:42:53.081Z,1011.91
2016-06-27T00:43:53.067Z,1011.89
2016-06-27T00:44:53.050Z,1011.88
2016-06-27T00:45:53.050Z,1011.84
2016-06-27T00:46:53.033Z,1011.85
2016-06-27T00:47:53.011Z,1011.86
2016-06-27T00:48:52.999Z,1011.85
2016-06-27T00:49:52.977Z,1011.91
2016-06-27T00:50:52.964Z,1011.9
2016-06-27T00:51:52.950Z,1011.92
2016-06-27T00:52:52.934Z,1011.93
2016-06-27T00:53:52.919Z,1011.96
2016-06-27T00:54:52.913Z,1011.96
2016-06-27T00:55:52.895Z,1011.97
2016-06-27T00:56:52.886Z,1011.98
2016-06-27T00:57:52.857Z,1011.95
2016-06-27T00:58:52.843Z,1011.93
2016-06-27T00:59:52.830Z,1011.94
2016-06-27T01:00:52.821Z,1011.94
2016-06-27T01:01:52.810Z,1011.93
2016-06-27T01:02:52.784Z,1011.95
2016-06-27T01:03:52.775Z,1011.93
2016-06-27T01:04:52.763Z,1011.94
2016-06-27T01:05:52.743Z,1011.9
2016-06-27T01:06:52.730Z,1011.87
2016-06-27T01:07:52.718Z,1011.89
2016-06-27T01:08:52.699Z,1011.95
2016-06-27T01:09:52.680Z,1011.91
2016-06-27T01:10:52.676Z,1011.91
2016-06-27T01:11:52.657Z,1011.88
2016-06-27T01:12:52.650Z,1011.86
2016-06-27T01:13:52.622Z,1011.88
2016-06-27T01:14:52.613Z,1011.85
2016-06-27T01:15:52.600Z,1011.86
2016-06-27T01:16:52.585Z,1011.88
2016-06-27T01:17:52.566Z,1011.84
2016-06-27T01:18:52.550Z,1011.85
2016-06-27T01:19:52.538Z,1011.81
2016-06-27T01:20:52.525Z,1011.82
2016-06-27T01:21:52.510Z,1011.8
2016-06-27T01:22:52.490Z,1011.76
2016-06-27T01:23:52.479Z,1011.8
2016-06-27T01:24:52.461Z,1011.8
2016-06-27T01:25:52.451Z,1011.8
2016-06-27T01:26:52.446Z,1011.84
2016-06-27T01:27:52.419Z,1011.8
2016-06-27T01:28:52.397Z,1011.83
2016-06-27T01:29:52.384Z,1011.84
2016-06-27T01:30:52.367Z,1011.81
2016-06-27T01:31:52.360Z,1011.77
2016-06-27T01:32:52.341Z,1011.75
2016-06-27T01:33:52.326Z,1011.77
2016-06-27T01:34:52.313Z,1011.74
2016-06-27T01:35:52.299Z,1011.77
2016-06-27T01:36:52.285Z,1011.75
2016-06-27T01:37:52.270Z,1011.77
2016-06-27T01:38:52.251Z,1011.78
2016-06-27T01:39:52.238Z,1011.76
2016-06-27T01:40:52.226Z,1011.79
2016-06-27T01:41:52.206Z,1011.83
2016-06-27T01:42:52.195Z,1011.87
2016-06-27T01:43:52.178Z,1011.8
2016-06-27T01:44:52.164Z,1011.83
2016-06-27T01:45:52.163Z,1011.81
2016-06-27T01:46:52.134Z,1011.76
2016-06-27T01:47:52.120Z,1011.75
2016-06-27T01:48:52.101Z,1011.69
2016-06-27T01:49:52.090Z,1011.68
2016-06-27T01:50:52.076Z,1011.66
2016-06-27T01:51:52.060Z,1011.71
2016-06-27T01:52:52.062Z,1011.68
2016-06-27T01:53:52.032Z,1011.69
2016-06-27T01:54:52.015Z,1011.7
2016-06-27T01:55:52.002Z,1011.7
2016-06-27T01:56:51.988Z,1011.69
2016-06-27T01:57:51.970Z,1011.71
2016-06-27T01:58:51.955Z,1011.73
2016-06-27T01:59:51.944Z,1011.72
2016-06-27T02:00:51.927Z,1011.74
2016-06-27T02:01:51.912Z,1011.7
2016-06-27T02:02:51.907Z,1011.7
2016-06-27T02:03:51.893Z,1011.71
2016-06-27T02:04:51.865Z,1011.67
2016-06-27T02:05:51.856Z,1011.68
2016-06-27T02:06:51.842Z,1011.7
2016-06-27T02:07:51.821Z,1011.67
2016-06-27T02:08:51.808Z,1011.67
2016-06-27T02:09:51.795Z,1011.71
2016-06-27T02:10:51.777Z,1011.67
2016-06-27T02:11:51.765Z,1011.68
2016-06-27T02:12:51.753Z,1011.64
2016-06-27T02:13:51.739Z,1011.66
2016-06-27T02:14:51.723Z,1011.64
2016-06-27T02:15:51.703Z,1011.64
2016-06-27T02:16:51.692Z,1011.61
2016-06-27T02:17:51.678Z,1011.64
2016-06-27T02:18:51.663Z,1011.63
2016-06-27T02:19:51.646Z,1011.63
2016-06-27T02:20:51.637Z,1011.68
2016-06-27T02:21:51.628Z,1011.64
2016-06-27T02:22:51.601Z,1011.62
2016-06-27T02:23:51.589Z,1011.6
2016-06-27T02:24:51.577Z,1011.66
2016-06-27T02:25:51.561Z,1011.65
2016-06-27T02:26:51.543Z,1011.66
2016-06-27T02:27:51.529Z,1011.64
2016-06-27T02:28:51.518Z,1011.61
2016-06-27T02:29:51.508Z,1011.59
2016-06-27T02:30:51.487Z,1011.57
2016-06-27T02:31:51.472Z,1011.54
2016-06-27T02:32:51.454Z,1011.53
2016-06-27T02:33:51.438Z,1011.54
2016-06-27T02:34:51.428Z,1011.53
2016-06-27T02:35:51.414Z,1011.55
2016-06-27T02:36:51.397Z,1011.53
2016-06-27T02:37:51.382Z,1011.54
2016-06-27T02:38:51.364Z,1011.57
2016-06-27T02:39:51.354Z,1011.53
2016-06-27T02:40:51.337Z,1011.48
2016-06-27T02:41:51.325Z,1011.46
2016-06-27T02:42:51.312Z,1011.44
2016-06-27T02:43:51.292Z,1011.41
2016-06-27T02:44:51.279Z,1011.45
2016-06-27T02:45:51.313Z,1011.41
2016-06-27T02:46:51.256Z,1011.42
2016-06-27T02:47:51.235Z,1011.42
2016-06-27T02:48:51.218Z,1011.43
2016-06-27T02:49:51.202Z,1011.43
2016-06-27T02:50:51.190Z,1011.41
2016-06-27T02:51:51.174Z,1011.45
2016-06-27T02:52:51.163Z,1011.47
2016-06-27T02:53:51.495Z,1011.48
2016-06-27T02:54:51.127Z,1011.53
2016-06-27T02:55:51.115Z,1011.55
2016-06-27T02:56:51.107Z,1011.61
2016-06-27T02:57:51.086Z,1011.6
2016-06-27T02:58:51.074Z,1011.59
2016-06-27T02:59:51.059Z,1011.63
2016-06-27T03:00:51.039Z,1011.65
2016-06-27T03:01:51.376Z,1011.66
2016-06-27T03:02:51.010Z,1011.63
2016-06-27T03:03:50.998Z,1011.69
2016-06-27T03:04:50.984Z,1011.68
2016-06-27T03:05:50.980Z,1011.65
2016-06-27T03:06:50.954Z,1011.71
2016-06-27T03:07:50.940Z,1011.71
2016-06-27T03:08:50.926Z,1011.7
2016-06-27T03:09:51.408Z,1011.7
2016-06-27T03:10:50.894Z,1011.69
2016-06-27T03:11:50.877Z,1011.64
2016-06-27T03:12:50.864Z,1011.67
2016-06-27T03:13:50.874Z,1011.64
2016-06-27T03:14:50.834Z,1011.64
2016-06-27T03:15:50.815Z,1011.63
2016-06-27T03:16:50.807Z,1011.59
2016-06-27T03:17:51.336Z,1011.6
2016-06-27T03:18:50.781Z,1011.66
2016-06-27T03:19:50.763Z,1011.59
2016-06-27T03:20:50.747Z,1011.64
2016-06-27T03:21:50.730Z,1011.64
2016-06-27T03:22:50.718Z,1011.63
2016-06-27T03:23:50.698Z,1011.63
2016-06-27T03:24:50.689Z,1011.65
2016-06-27T03:25:51.515Z,1011.63
2016-06-27T03:26:50.657Z,1011.66
2016-06-27T03:27:50.642Z,1011.65
2016-06-27T03:28:50.627Z,1011.66
2016-06-27T03:29:50.608Z,1011.64
2016-06-27T03:30:50.597Z,1011.64
2016-06-27T03:31:50.580Z,1011.63
2016-06-27T03:32:50.563Z,1011.62
2016-06-27T03:33:50.697Z,1011.67
2016-06-27T03:34:50.537Z,1011.63
2016-06-27T03:35:50.522Z,1011.67
2016-06-27T03:36:50.504Z,1011.69
2016-06-27T03:37:50.489Z,1011.71
2016-06-27T03:38:50.480Z,1011.65
2016-06-27T03:39:50.467Z,1011.64
2016-06-27T03:40:50.469Z,1011.66
2016-06-27T03:41:50.683Z,1011.69
2016-06-27T03:42:50.422Z,1011.62
2016-06-27T03:43:50.398Z,1011.64
2016-06-27T03:44:50.391Z,1011.67
2016-06-27T03:45:50.373Z,1011.7
2016-06-27T03:46:50.359Z,1011.62
2016-06-27T03:47:50.344Z,1011.68
2016-06-27T03:48:50.325Z,1011.64
2016-06-27T03:49:50.716Z,1011.67
2016-06-27T03:50:50.292Z,1011.67
2016-06-27T03:51:50.288Z,1011.64
2016-06-27T03:52:50.276Z,1011.62
2016-06-27T03:53:50.252Z,1011.66
2016-06-27T03:54:50.239Z,1011.67
2016-06-27T03:55:50.221Z,1011.61
2016-06-27T03:56:50.207Z,1011.57
2016-06-27T03:57:50.192Z,1011.59
2016-06-27T03:58:50.196Z,1011.58
2016-06-27T03:59:50.163Z,1011.54
2016-06-27T04:00:50.158Z,1011.5
2016-06-27T04:01:50.131Z,1011.48
2016-06-27T04:02:50.119Z,1011.5
2016-06-27T04:03:50.104Z,1011.48
2016-06-27T04:04:50.094Z,1011.49
2016-06-27T04:05:50.074Z,1011.51
2016-06-27T04:06:50.065Z,1011.47
2016-06-27T04:07:50.046Z,1011.5
2016-06-27T04:08:50.029Z,1011.49
2016-06-27T04:09:50.013Z,1011.47
2016-06-27T04:10:49.999Z,1011.45
2016-06-27T04:11:49.987Z,1011.52
2016-06-27T04:12:49.971Z,1011.57
2016-06-27T04:13:49.959Z,1011.56
2016-06-27T04:14:49.942Z,1011.59
2016-06-27T04:15:49.926Z,1011.56
2016-06-27T04:16:49.912Z,1011.58
2016-06-27T04:17:49.897Z,1011.59
2016-06-27T04:18:49.887Z,1011.54
2016-06-27T04:19:49.867Z,1011.53
2016-06-27T04:20:49.851Z,1011.5
2016-06-27T04:21:49.841Z,1011.49
2016-06-27T04:22:49.827Z,1011.52
2016-06-27T04:23:49.807Z,1011.55
2016-06-27T04:24:49.795Z,1011.57
2016-06-27T04:25:49.775Z,1011.6
2016-06-27T04:26:49.764Z,1011.57
2016-06-27T04:27:49.750Z,1011.56
2016-06-27T04:28:49.729Z,1011.57
2016-06-27T04:29:49.725Z,1011.55
2016-06-27T04:30:49.702Z,1011.52
2016-06-27T04:31:49.688Z,1011.59
2016-06-27T04:32:49.681Z,1011.52
2016-06-27T04:33:49.658Z,1011.51
2016-06-27T04:34:49.643Z,1011.54
2016-06-27T04:35:49.630Z,1011.55
2016-06-27T04:36:49.613Z,1011.61
2016-06-27T04:37:49.602Z,1011.58
2016-06-27T04:38:49.584Z,1011.55
2016-06-27T04:39:49.574Z,1011.52
2016-06-27T04:40:49.561Z,1011.53
2016-06-27T04:41:49.543Z,1011.53
2016-06-27T04:42:49.527Z,1011.52
2016-06-27T04:43:49.511Z,1011.5
2016-06-27T04:44:49.494Z,1011.49
2016-06-27T04:45:49.484Z,1011.52
2016-06-27T04:46:49.470Z,1011.52
2016-06-27T04:47:49.455Z,1011.54
2016-06-27T04:48:49.439Z,1011.57
2016-06-27T04:49:49.421Z,1011.57
2016-06-27T04:50:49.408Z,1011.59
2016-06-27T04:51:49.394Z,1011.57
2016-06-27T04:52:49.379Z,1011.62
2016-06-27T04:53:49.364Z,1011.6
2016-06-27T04:54:49.346Z,1011.6
2016-06-27T04:55:49.340Z,1011.6
2016-06-27T04:56:49.322Z,1011.57
2016-06-27T04:57:49.305Z,1011.57
2016-06-27T04:58:49.295Z,1011.6
2016-06-27T04:59:49.272Z,1011.57
2016-06-27T05:00:49.263Z,1011.57
2016-06-27T05:01:49.244Z,1011.63
2016-06-27T05:02:49.235Z,1011.61
2016-06-27T05:03:49.230Z,1011.67
2016-06-27T05:04:49.208Z,1011.63
2016-06-27T05:05:49.196Z,1011.6
2016-06-27T05:06:49.178Z,1011.62
2016-06-27T05:07:49.154Z,1011.6
2016-06-27T05:08:49.145Z,1011.54
2016-06-27T05:09:49.127Z,1011.6
2016-06-27T05:10:49.114Z,1011.57
2016-06-27T05:11:49.090Z,1011.64
2016-06-27T05:12:49.085Z,1011.61
2016-06-27T05:13:49.069Z,1011.59
2016-06-27T05:14:49.054Z,1011.6
2016-06-27T05:15:49.036Z,1011.64
2016-06-27T05:16:49.025Z,1011.62
2016-06-27T05:17:49.014Z,1011.69
2016-06-27T05:18:48.998Z,1011.6
2016-06-27T05:19:48.979Z,1011.67
2016-06-27T05:20:48.967Z,1011.64
2016-06-27T05:21:48.951Z,1011.66
2016-06-27T05:22:48.934Z,1011.64
2016-06-27T05:23:48.921Z,1011.61
2016-06-27T05:24:48.907Z,1011.58
2016-06-27T05:25:48.888Z,1011.62
2016-06-27T05:26:48.875Z,1011.63
2016-06-27T05:27:48.859Z,1011.66
2016-06-27T05:28:48.844Z,1011.66
2016-06-27T05:29:48.831Z,1011.64
2016-06-27T05:30:48.817Z,1011.76
2016-06-27T05:31:48.813Z,1011.68
2016-06-27T05:32:48.784Z,1011.67
2016-06-27T05:33:48.776Z,1011.67
2016-06-27T05:34:48.754Z,1011.68
2016-06-27T05:35:48.745Z,1011.65
2016-06-27T05:36:48.729Z,1011.68
2016-06-27T05:37:48.715Z,1011.74
2016-06-27T05:38:48.698Z,1011.7
2016-06-27T05:39:48.683Z,1011.71
2016-06-27T05:40:48.677Z,1011.71
2016-06-27T05:41:48.652Z,1011.67
2016-06-27T05:42:48.638Z,1011.66
2016-06-27T05:43:48.620Z,1011.67
2016-06-27T05:44:48.614Z,1011.69
2016-06-27T05:45:48.599Z,1011.66
2016-06-27T05:46:48.584Z,1011.69
2016-06-27T05:47:48.560Z,1011.67
2016-06-27T05:48:48.547Z,1011.68
2016-06-27T05:49:48.538Z,1011.67
2016-06-27T05:50:48.517Z,1011.63
2016-06-27T05:51:48.503Z,1011.62
2016-06-27T05:52:48.491Z,1011.67
2016-06-27T05:53:48.482Z,1011.61
2016-06-27T05:54:48.473Z,1011.66
2016-06-27T05:55:48.487Z,1011.61
2016-06-27T05:56:48.634Z,1011.58
2016-06-27T05:57:48.411Z,1011.59
2016-06-27T05:58:48.398Z,1011.62
2016-06-27T05:59:48.382Z,1011.66
2016-06-27T06:00:48.373Z,1011.67
2016-06-27T06:01:48.360Z,1011.64
2016-06-27T06:02:48.339Z,1011.67
2016-06-27T06:03:48.323Z,1011.69
2016-06-27T06:04:48.559Z,1011.62
2016-06-27T06:05:48.295Z,1011.67
2016-06-27T06:06:48.279Z,1011.79
2016-06-27T06:07:48.262Z,1011.75
2016-06-27T06:08:48.253Z,1011.76
2016-06-27T06:09:48.234Z,1011.74
2016-06-27T06:10:48.223Z,1011.71
2016-06-27T06:11:48.206Z,1011.73
2016-06-27T06:12:48.638Z,1011.77
2016-06-27T06:13:48.175Z,1011.75
2016-06-27T06:14:48.158Z,1011.7
2016-06-27T06:15:48.142Z,1011.72
2016-06-27T06:16:48.133Z,1011.68
2016-06-27T06:17:48.118Z,1011.69
2016-06-27T06:18:48.098Z,1011.73
2016-06-27T06:19:48.085Z,1011.68
2016-06-27T06:20:48.526Z,1011.66
2016-06-27T06:21:48.056Z,1011.64
2016-06-27T06:22:48.042Z,1011.7
2016-06-27T06:23:48.030Z,1011.69
2016-06-27T06:24:48.014Z,1011.74
2016-06-27T06:25:47.999Z,1011.76
2016-06-27T06:26:47.979Z,1011.76
2016-06-27T06:27:47.960Z,1011.79
2016-06-27T06:28:48.551Z,1011.8
2016-06-27T06:29:47.933Z,1011.74
2016-06-27T06:30:47.920Z,1011.81
2016-06-27T06:31:47.907Z,1011.78
2016-06-27T06:32:47.890Z,1011.76
2016-06-27T06:33:47.876Z,1011.84
2016-06-27T06:34:47.860Z,1011.83
2016-06-27T06:35:47.846Z,1011.79
2016-06-27T06:36:47.830Z,1011.8
2016-06-27T06:37:47.816Z,1011.8
2016-06-27T06:38:47.802Z,1011.81
2016-06-27T06:39:47.786Z,1011.81
2016-06-27T06:40:47.774Z,1011.82
2016-06-27T06:41:47.756Z,1011.84
2016-06-27T06:42:47.740Z,1011.87
2016-06-27T06:43:47.727Z,1011.91
2016-06-27T06:44:47.861Z,1011.95
2016-06-27T06:45:47.702Z,1011.92
2016-06-27T06:46:47.686Z,1011.88
2016-06-27T06:47:47.676Z,1011.93
2016-06-27T06:48:47.663Z,1011.96
2016-06-27T06:49:47.637Z,1011.96
2016-06-27T06:50:47.626Z,1011.95
2016-06-27T06:51:47.603Z,1011.98
2016-06-27T06:52:47.848Z,1011.95
2016-06-27T06:53:47.578Z,1011.97
2016-06-27T06:54:47.588Z,1012.01
2016-06-27T06:55:47.556Z,1012.01
2016-06-27T06:56:47.541Z,1011.99
2016-06-27T06:57:47.522Z,1012.02
2016-06-27T06:58:47.507Z,1012.01
2016-06-27T06:59:47.495Z,1011.99
2016-06-27T07:00:47.879Z,1012
2016-06-27T07:01:47.455Z,1011.95
2016-06-27T07:02:47.447Z,1011.97
2016-06-27T07:03:47.426Z,1012.02
2016-06-27T07:04:47.414Z,1011.97
2016-06-27T07:05:47.403Z,1011.95
2016-06-27T07:06:47.384Z,1011.92
2016-06-27T07:07:47.372Z,1011.95
2016-06-27T07:08:47.858Z,1012
2016-06-27T07:09:47.341Z,1011.98
2016-06-27T07:10:47.324Z,1011.98
2016-06-27T07:11:47.310Z,1011.93
2016-06-27T07:12:47.296Z,1011.91
2016-06-27T07:13:47.293Z,1011.94
2016-06-27T07:14:47.272Z,1011.96
2016-06-27T07:15:47.254Z,1011.92
2016-06-27T07:16:47.239Z,1011.93
2016-06-27T07:17:47.223Z,1012.02
2016-06-27T07:18:47.207Z,1012.02
2016-06-27T07:19:47.192Z,1012
2016-06-27T07:20:47.174Z,1011.97
2016-06-27T07:21:47.181Z,1011.97
2016-06-27T07:22:47.146Z,1011.97
2016-06-27T07:23:47.139Z,1011.95
2016-06-27T07:24:47.126Z,1011.95
2016-06-27T07:25:47.102Z,1011.94
2016-06-27T07:26:47.087Z,1011.95
2016-06-27T07:27:47.073Z,1011.9
2016-06-27T07:28:47.059Z,1011.93
2016-06-27T07:29:47.042Z,1011.87
2016-06-27T07:30:47.028Z,1011.93
2016-06-27T07:31:47.012Z,1011.92
2016-06-27T07:32:46.996Z,1011.88
2016-06-27T07:33:46.980Z,1011.89
2016-06-27T07:34:46.966Z,1011.91
2016-06-27T07:35:46.952Z,1011.95
2016-06-27T07:36:46.942Z,1011.88
2016-06-27T07:37:46.922Z,1011.93
2016-06-27T07:38:46.906Z,1011.87
2016-06-27T07:39:46.902Z,1011.92
2016-06-27T07:40:46.880Z,1011.91
2016-06-27T07:41:46.868Z,1011.91
2016-06-27T07:42:46.843Z,1011.95
2016-06-27T07:43:46.832Z,1011.93
2016-06-27T07:44:46.822Z,1011.94
2016-06-27T07:45:46.803Z,1011.91
2016-06-27T07:46:46.791Z,1011.86
2016-06-27T07:47:46.778Z,1011.87
2016-06-27T07:48:46.763Z,1011.81
2016-06-27T07:49:46.744Z,1011.79
2016-06-27T07:50:46.738Z,1011.83
2016-06-27T07:51:46.717Z,1011.84
2016-06-27T07:52:46.702Z,1011.77
2016-06-27T07:53:46.686Z,1011.83
2016-06-27T07:54:46.670Z,1011.79
2016-06-27T07:55:46.658Z,1011.78
2016-06-27T07:56:46.639Z,1011.85
2016-06-27T07:57:46.627Z,1011.75
2016-06-27T07:58:46.610Z,1011.73
2016-06-27T07:59:46.604Z,1011.76
2016-06-27T08:00:46.583Z,1011.76
2016-06-27T08:01:46.574Z,1011.81
2016-06-27T08:02:46.566Z,1011.73
2016-06-27T08:03:46.550Z,1011.73
2016-06-27T08:04:46.526Z,1011.75
2016-06-27T08:05:46.507Z,1011.79
2016-06-27T08:06:46.497Z,1011.76
2016-06-27T08:07:46.481Z,1011.76
2016-06-27T08:08:46.464Z,1011.79
2016-06-27T08:09:46.453Z,1011.8
2016-06-27T08:10:46.435Z,1011.77
2016-06-27T08:11:46.419Z,1011.78
2016-06-27T08:12:46.405Z,1011.74
2016-06-27T08:13:46.402Z,1011.81
2016-06-27T08:14:46.374Z,1011.75
2016-06-27T08:15:46.368Z,1011.77
2016-06-27T08:16:46.345Z,1011.77
2016-06-27T08:17:46.329Z,1011.72
2016-06-27T08:18:46.316Z,1011.74
2016-06-27T08:19:46.309Z,1011.79
2016-06-27T08:20:46.290Z,1011.74
2016-06-27T08:21:46.274Z,1011.76
2016-06-27T08:22:46.262Z,1011.7
2016-06-27T08:23:46.239Z,1011.76
2016-06-27T08:24:46.225Z,1011.7
2016-06-27T08:25:46.215Z,1011.77
2016-06-27T08:26:46.209Z,1011.78
2016-06-27T08:27:46.188Z,1011.67
2016-06-27T08:28:46.169Z,1011.74
2016-06-27T08:29:46.152Z,1011.76
2016-06-27T08:30:46.159Z,1011.82
2016-06-27T08:31:46.162Z,1011.74
2016-06-27T08:32:46.109Z,1011.8
2016-06-27T08:33:46.096Z,1011.78
2016-06-27T08:34:46.085Z,1011.8
2016-06-27T08:35:46.062Z,1011.78
2016-06-27T08:36:46.051Z,1011.82
2016-06-27T08:37:46.039Z,1011.79
2016-06-27T08:38:46.025Z,1011.8
2016-06-27T08:39:46.012Z,1011.8
2016-06-27T08:40:45.992Z,1011.77
2016-06-27T08:41:45.978Z,1011.8
2016-06-27T08:42:45.965Z,1011.86
2016-06-27T08:43:45.944Z,1011.83
2016-06-27T08:44:45.947Z,1011.85
2016-06-27T08:45:45.921Z,1011.87
2016-06-27T08:46:45.909Z,1011.81
2016-06-27T08:47:45.895Z,1011.92
2016-06-27T08:48:45.878Z,1011.86
2016-06-27T08:49:45.866Z,1011.84
2016-06-27T08:50:45.846Z,1011.86
2016-06-27T08:51:45.843Z,1011.84
2016-06-27T08:52:45.818Z,1011.85
2016-06-27T08:53:45.796Z,1011.82
2016-06-27T08:54:45.788Z,1011.8
2016-06-27T08:55:45.774Z,1011.86
2016-06-27T08:56:45.762Z,1011.81
2016-06-27T08:57:45.743Z,1011.87
2016-06-27T08:58:45.730Z,1011.9
2016-06-27T08:59:45.711Z,1011.85
2016-06-27T09:00:45.704Z,1011.87
2016-06-27T09:01:45.690Z,1011.95
2016-06-27T09:02:45.679Z,1011.88
2016-06-27T09:03:45.659Z,1011.88
2016-06-27T09:04:45.640Z,1011.89
2016-06-27T09:05:45.624Z,1011.87
2016-06-27T09:06:45.619Z,1011.87
2016-06-27T09:07:45.596Z,1011.93
2016-06-27T09:08:45.584Z,1011.91
2016-06-27T09:09:45.562Z,1011.85
2016-06-27T09:10:45.551Z,1011.88
2016-06-27T09:11:45.537Z,1011.86
2016-06-27T09:12:45.530Z,1011.9
2016-06-27T09:13:45.508Z,1011.9
2016-06-27T09:14:45.496Z,1011.9
2016-06-27T09:15:45.732Z,1011.86
2016-06-27T09:16:45.462Z,1011.88
2016-06-27T09:17:45.446Z,1011.9
2016-06-27T09:18:45.449Z,1011.95
2016-06-27T09:19:45.419Z,1011.95
2016-06-27T09:20:45.408Z,1011.91
2016-06-27T09:21:45.398Z,1011.89
2016-06-27T09:22:45.373Z,1011.89
2016-06-27T09:23:45.857Z,1011.83
2016-06-27T09:24:45.353Z,1011.87
2016-06-27T09:25:45.355Z,1011.81
2016-06-27T09:26:45.317Z,1011.87
2016-06-27T09:27:45.307Z,1011.9
2016-06-27T09:28:45.294Z,1011.87
2016-06-27T09:29:45.274Z,1011.78
2016-06-27T09:30:45.258Z,1011.78
2016-06-27T09:31:45.703Z,1011.8
2016-06-27T09:32:45.231Z,1011.78
2016-06-27T09:33:45.213Z,1011.76
2016-06-27T09:34:45.205Z,1011.81
2016-06-27T09:35:45.182Z,1011.76
2016-06-27T09:36:45.167Z,1011.79
2016-06-27T09:37:45.153Z,1011.79
2016-06-27T09:38:45.135Z,1011.77
2016-06-27T09:39:45.883Z,1011.82
2016-06-27T09:40:45.111Z,1011.69
2016-06-27T09:41:45.100Z,1011.73
2016-06-27T09:42:45.081Z,1011.78
2016-06-27T09:43:45.068Z,1011.7
2016-06-27T09:44:45.048Z,1011.68
2016-06-27T09:45:45.041Z,1011.66
2016-06-27T09:46:45.024Z,1011.7
2016-06-27T09:47:45.001Z,1011.66
2016-06-27T09:48:44.986Z,1011.68
2016-06-27T09:49:44.990Z,1011.64
2016-06-27T09:50:44.961Z,1011.65
2016-06-27T09:51:44.948Z,1011.61
2016-06-27T09:52:44.927Z,1011.67
2016-06-27T09:53:44.913Z,1011.66
2016-06-27T09:54:44.903Z,1011.71
2016-06-27T09:55:45.034Z,1011.65
2016-06-27T09:56:44.874Z,1011.59
2016-06-27T09:57:44.858Z,1011.61
2016-06-27T09:58:44.843Z,1011.56
2016-06-27T09:59:44.828Z,1011.62
2016-06-27T10:00:44.814Z,1011.68
2016-06-27T10:01:44.799Z,1011.58
2016-06-27T10:02:44.786Z,1011.6
2016-06-27T10:03:45.874Z,1011.65
2016-06-27T10:04:44.749Z,1011.61
2016-06-27T10:05:44.739Z,1011.64
2016-06-27T10:06:44.719Z,1011.57
2016-06-27T10:07:44.709Z,1011.56
2016-06-27T10:08:44.694Z,1011.57
2016-06-27T10:09:44.673Z,1011.55
2016-06-27T10:10:44.662Z,1011.53
2016-06-27T10:11:45.911Z,1011.47
2016-06-27T10:12:44.627Z,1011.48
2016-06-27T10:13:44.614Z,1011.46
2016-06-27T10:14:44.596Z,1011.48
2016-06-27T10:15:44.583Z,1011.53
2016-06-27T10:16:44.572Z,1011.41
2016-06-27T10:17:44.560Z,1011.42
2016-06-27T10:18:44.545Z,1011.4
2016-06-27T10:19:45.034Z,1011.43
2016-06-27T10:20:44.506Z,1011.32
2016-06-27T10:21:44.496Z,1011.35
2016-06-27T10:22:44.478Z,1011.36
2016-06-27T10:23:44.480Z,1011.33
2016-06-27T10:24:44.464Z,1011.3
2016-06-27T10:25:44.433Z,1011.26
2016-06-27T10:26:44.420Z,1011.32
2016-06-27T10:27:44.417Z,1011.35
2016-06-27T10:28:44.387Z,1011.32
2016-06-27T10:29:44.372Z,1011.29
2016-06-27T10:30:44.358Z,1011.28
2016-06-27T10:31:44.342Z,1011.34
2016-06-27T10:32:44.329Z,1011.33
2016-06-27T10:33:44.319Z,1011.35
2016-06-27T10:34:44.307Z,1011.3
2016-06-27T10:35:44.282Z,1011.29
2016-06-27T10:36:44.276Z,1011.33
2016-06-27T10:37:44.251Z,1011.38
2016-06-27T10:38:44.267Z,1011.27
2016-06-27T10:39:44.223Z,1011.31
2016-06-27T10:40:44.203Z,1011.34
2016-06-27T10:41:44.201Z,1011.33
2016-06-27T10:42:44.192Z,1011.37
2016-06-27T10:43:44.162Z,1011.28
2016-06-27T10:44:44.152Z,1011.24
2016-06-27T10:45:44.151Z,1011.3
2016-06-27T10:46:44.135Z,1011.22
2016-06-27T10:47:44.134Z,1011.29
2016-06-27T10:48:44.087Z,1011.33
2016-06-27T10:49:44.081Z,1011.33
2016-06-27T10:50:44.056Z,1011.39
2016-06-27T10:51:44.042Z,1011.37
2016-06-27T10:52:44.054Z,1011.36
2016-06-27T10:53:44.015Z,1011.32
2016-06-27T10:54:44.002Z,1011.39
2016-06-27T10:55:43.982Z,1011.39
2016-06-27T10:56:43.970Z,1011.36
2016-06-27T10:57:43.966Z,1011.39
2016-06-27T10:58:43.942Z,1011.42
2016-06-27T10:59:43.921Z,1011.38
2016-06-27T11:00:43.926Z,1011.45
2016-06-27T11:01:43.890Z,1011.42
2016-06-27T11:02:43.888Z,1011.4
2016-06-27T11:03:43.865Z,1011.41
2016-06-27T11:04:43.851Z,1011.45
2016-06-27T11:05:43.835Z,1011.44
2016-06-27T11:06:43.818Z,1011.47
2016-06-27T11:07:43.803Z,1011.44
2016-06-27T11:08:43.791Z,1011.43
2016-06-27T11:09:43.786Z,1011.45
2016-06-27T11:10:43.761Z,1011.46
2016-06-27T11:11:43.746Z,1011.53
2016-06-27T11:12:43.731Z,1011.5
2016-06-27T11:13:43.717Z,1011.49
2016-06-27T11:14:43.701Z,1011.45
2016-06-27T11:15:43.688Z,1011.47
2016-06-27T11:16:43.671Z,1011.45
2016-06-27T11:17:43.658Z,1011.46
2016-06-27T11:18:43.636Z,1011.43
2016-06-27T11:19:43.621Z,1011.44
2016-06-27T11:20:43.610Z,1011.4
2016-06-27T11:21:43.598Z,1011.44
2016-06-27T11:22:43.595Z,1011.45
2016-06-27T11:23:43.573Z,1011.4
2016-06-27T11:24:43.552Z,1011.4
2016-06-27T11:25:43.541Z,1011.46
2016-06-27T11:26:43.520Z,1011.45
2016-06-27T11:27:43.506Z,1011.45
2016-06-27T11:28:43.486Z,1011.39
2016-06-27T11:29:43.472Z,1011.45
2016-06-27T11:30:43.461Z,1011.46
2016-06-27T11:31:43.447Z,1011.45
2016-06-27T11:32:43.452Z,1011.49
2016-06-27T11:33:43.417Z,1011.46
2016-06-27T11:34:43.406Z,1011.47
2016-06-27T11:35:43.393Z,1011.45
2016-06-27T11:36:43.394Z,1011.48
2016-06-27T11:37:43.356Z,1011.45
2016-06-27T11:38:43.352Z,1011.51
2016-06-27T11:39:43.322Z,1011.47
2016-06-27T11:40:43.318Z,1011.39
2016-06-27T11:41:43.299Z,1011.38
2016-06-27T11:46:32.366Z,1011.42
2016-06-27T11:47:32.373Z,1011.36
2016-06-27T11:48:32.338Z,1011.36
2016-06-27T11:49:32.324Z,1011.34
2016-06-27T11:50:32.306Z,1011.36
2016-06-27T11:51:32.294Z,1011.33
2016-06-27T11:52:32.280Z,1011.38
2016-06-27T11:53:32.265Z,1011.35
2016-06-27T11:54:32.247Z,1011.29
2016-06-27T11:55:32.237Z,1011.33
2016-06-27T11:56:32.218Z,1011.32
2016-06-27T11:57:32.209Z,1011.32
2016-06-27T11:58:32.198Z,1011.33
2016-06-27T11:59:32.174Z,1011.3
2016-06-27T12:00:32.175Z,1011.32
2016-06-27T12:01:32.144Z,1011.34
2016-06-27T12:02:32.131Z,1011.3
2016-06-27T12:03:32.128Z,1011.41
2016-06-27T12:04:32.107Z,1011.27
2016-06-27T12:05:32.083Z,1011.3
2016-06-27T12:06:32.091Z,1011.34
2016-06-27T12:07:32.061Z,1011.33
2016-06-27T12:08:32.042Z,1011.34
2016-06-27T12:09:32.035Z,1011.36
2016-06-27T12:10:32.023Z,1011.35
2016-06-27T12:11:32.006Z,1011.33
2016-06-27T12:12:31.995Z,1011.3